createdAt,value
2023-05-09T04:00:36.147Z,9.15
2023-05-09T04:01:39.529Z,9.13
2023-05-09T04:02:37.274Z,9.12
2023-05-09T04:03:37.194Z,9.13
2023-05-09T04:04:37.096Z,9.13
2023-05-09T04:05:37.100Z,9.12
2023-05-09T04:06:37.085Z,9.12
2023-05-09T04:07:37.095Z,9.13
2023-05-09T04:08:37.103Z,9.16
2023-05-09T04:09:37.052Z,9.12
2023-05-09T04:10:37.041Z,9.13
2023-05-09T04:11:37.043Z,9.09
2023-05-09T04:12:37.023Z,9.12
2023-05-09T04:13:37.003Z,9.12
2023-05-09T04:14:36.983Z,9.10
2023-05-09T04:15:36.978Z,9.09
2023-05-09T04:16:37.027Z,9.05
2023-05-09T04:17:36.979Z,9.10
2023-05-09T04:18:36.994Z,9.06
2023-05-09T04:19:36.946Z,9.10
2023-05-09T04:20:36.914Z,9.09
2023-05-09T04:21:36.914Z,9.13
2023-05-09T04:22:36.897Z,9.16
2023-05-09T04:23:36.893Z,9.13
2023-05-09T04:24:36.939Z,9.15
2023-05-09T04:25:36.883Z,9.18
2023-05-09T04:26:36.882Z,9.16
2023-05-09T04:27:36.873Z,9.16
2023-05-09T04:28:36.872Z,9.15
2023-05-09T04:29:36.813Z,9.15
2023-05-09T04:30:36.857Z,9.18
2023-05-09T04:31:36.921Z,9.20
2023-05-09T04:32:36.851Z,9.21
2023-05-09T04:33:36.801Z,9.21
2023-05-09T04:34:36.766Z,9.24
2023-05-09T04:35:36.759Z,9.28
2023-05-09T04:36:36.753Z,9.24
2023-05-09T04:37:36.729Z,9.28
2023-05-09T04:38:36.737Z,9.25
2023-05-09T04:39:36.743Z,9.25
2023-05-09T04:40:36.691Z,9.23
2023-05-09T04:41:36.699Z,9.25
2023-05-09T04:42:36.825Z,9.28
2023-05-09T04:43:36.767Z,9.24
2023-05-09T04:44:36.661Z,9.21
2023-05-09T04:45:36.631Z,9.24
2023-05-09T04:46:36.756Z,9.21
2023-05-09T04:47:36.625Z,9.25
2023-05-09T04:48:36.617Z,9.21
2023-05-09T04:49:36.609Z,9.30
2023-05-09T04:50:36.619Z,9.23
2023-05-09T04:51:36.573Z,9.27
2023-05-09T04:52:36.604Z,9.31
2023-05-09T04:53:36.577Z,9.30
2023-05-09T04:54:36.550Z,9.30
2023-05-09T04:55:36.545Z,9.34
2023-05-09T04:56:36.524Z,9.31
2023-05-09T04:57:36.517Z,9.35
2023-05-09T04:58:36.520Z,9.39
2023-05-09T04:59:36.487Z,9.38
2023-05-09T05:00:36.502Z,9.40
2023-05-09T05:01:36.495Z,9.42
2023-05-09T05:02:36.551Z,9.46
2023-05-09T05:03:36.459Z,9.43
2023-05-09T05:04:36.463Z,9.43
2023-05-09T05:05:37.608Z,9.48
2023-05-09T05:06:36.428Z,9.48
2023-05-09T05:07:36.407Z,9.52
2023-05-09T05:08:36.388Z,9.52
2023-05-09T05:09:36.721Z,9.57
2023-05-09T05:10:36.370Z,9.57
2023-05-09T05:11:36.374Z,9.57
2023-05-09T05:12:36.349Z,9.61
2023-05-09T05:13:36.357Z,9.60
2023-05-09T05:14:36.361Z,9.60
2023-05-09T05:15:36.326Z,9.57
2023-05-09T05:16:36.386Z,9.64
2023-05-09T05:17:36.331Z,9.67
2023-05-09T05:18:36.281Z,9.66
2023-05-09T05:19:36.277Z,9.67
2023-05-09T05:20:36.267Z,9.67
2023-05-09T05:21:36.251Z,9.67
2023-05-09T05:22:36.278Z,9.75
2023-05-09T05:23:36.223Z,9.86
2023-05-09T05:24:36.234Z,9.79
2023-05-09T05:25:36.236Z,9.83
2023-05-09T05:26:36.205Z,9.86
2023-05-09T05:27:36.186Z,9.93
2023-05-09T05:28:36.186Z,9.88
2023-05-09T05:29:36.163Z,9.94
2023-05-09T05:30:36.141Z,9.91
2023-05-09T05:31:36.170Z,9.96
2023-05-09T05:32:36.230Z,10.00
2023-05-09T05:33:36.105Z,10.09
2023-05-09T05:34:36.107Z,10.17
2023-05-09T05:35:36.127Z,10.12
2023-05-09T05:36:36.092Z,10.10
2023-05-09T05:37:36.060Z,10.18
2023-05-09T05:38:36.074Z,10.24
2023-05-09T05:39:36.077Z,10.33
2023-05-09T05:40:36.063Z,10.36
2023-05-09T05:41:36.072Z,10.42
2023-05-09T05:42:36.128Z,10.39
2023-05-09T05:43:36.027Z,10.40
2023-05-09T05:44:36.003Z,10.46
2023-05-09T05:45:36.020Z,10.52
2023-05-09T05:46:35.975Z,10.55
2023-05-09T05:47:36.005Z,10.55
2023-05-09T05:48:36.094Z,10.59
2023-05-09T05:49:35.989Z,10.65
2023-05-09T05:50:35.933Z,10.73
2023-05-09T05:51:35.906Z,10.76
2023-05-09T05:52:35.917Z,10.80
2023-05-09T05:53:35.874Z,10.86
2023-05-09T05:54:35.888Z,10.94
2023-05-09T05:55:35.865Z,10.91
2023-05-09T05:56:35.852Z,11.01
2023-05-09T05:57:35.853Z,10.99
2023-05-09T05:58:35.868Z,11.01
2023-05-09T05:59:35.832Z,10.95
2023-05-09T06:00:35.802Z,10.96
2023-05-09T06:01:35.795Z,11.01
2023-05-09T06:02:35.845Z,11.02
2023-05-09T06:03:35.839Z,11.06
2023-05-09T06:04:35.788Z,11.01
2023-05-09T06:05:35.739Z,11.11
2023-05-09T06:06:35.752Z,11.11
2023-05-09T06:07:35.738Z,11.16
2023-05-09T06:08:35.752Z,11.16
2023-05-09T06:09:35.743Z,11.20
2023-05-09T06:10:35.724Z,11.20
2023-05-09T06:11:35.703Z,11.24
2023-05-09T06:12:35.682Z,11.31
2023-05-09T06:13:35.669Z,11.39
2023-05-09T06:14:35.689Z,11.28
2023-05-09T06:15:35.641Z,11.29
2023-05-09T06:16:35.713Z,11.29
2023-05-09T06:17:35.700Z,11.34
2023-05-09T06:18:35.616Z,11.31
2023-05-09T06:19:35.622Z,11.31
2023-05-09T06:20:35.624Z,11.32
2023-05-09T06:21:35.614Z,11.32
2023-05-09T06:22:35.572Z,11.36
2023-05-09T06:23:35.550Z,11.47
2023-05-09T06:24:36.460Z,11.57
2023-05-09T06:25:35.553Z,11.59
2023-05-09T06:26:35.539Z,11.72
2023-05-09T06:27:35.520Z,11.90
2023-05-09T06:28:35.529Z,12.09
2023-05-09T06:29:35.526Z,12.30
2023-05-09T06:30:35.523Z,12.41
2023-05-09T06:31:35.512Z,12.51
2023-05-09T06:32:35.481Z,12.74
2023-05-09T06:33:35.446Z,12.74
2023-05-09T06:34:35.443Z,12.63
2023-05-09T06:35:35.433Z,12.79
2023-05-09T06:36:35.421Z,12.95
2023-05-09T06:37:35.471Z,13.12
2023-05-09T06:38:35.403Z,13.20
2023-05-09T06:39:35.383Z,13.27
2023-05-09T06:40:35.367Z,13.29
2023-05-09T06:41:35.363Z,13.43
2023-05-09T06:42:35.352Z,13.32
2023-05-09T06:43:35.374Z,13.15
2023-05-09T06:44:35.321Z,13.11
2023-05-09T06:45:35.495Z,13.21
2023-05-09T06:46:35.402Z,13.32
2023-05-09T06:47:35.339Z,13.63
2023-05-09T06:48:35.309Z,13.88
2023-05-09T06:49:35.268Z,13.96
2023-05-09T06:50:35.272Z,13.95
2023-05-09T06:51:35.248Z,13.87
2023-05-09T06:52:35.231Z,13.95
2023-05-09T06:53:35.234Z,14.13
2023-05-09T06:54:35.213Z,14.14
2023-05-09T06:55:35.216Z,14.17
2023-05-09T06:56:35.197Z,14.24
2023-05-09T06:57:35.172Z,14.38
2023-05-09T06:58:35.182Z,14.42
2023-05-09T06:59:35.177Z,14.21
2023-05-09T07:00:35.149Z,14.25
2023-05-09T07:01:35.174Z,14.21
2023-05-09T07:02:35.140Z,14.20
2023-05-09T07:03:35.114Z,14.13
2023-05-09T07:04:35.169Z,13.96
2023-05-09T07:05:35.142Z,14.01
2023-05-09T07:06:35.094Z,14.10
2023-05-09T07:07:35.062Z,14.19
2023-05-09T07:08:35.078Z,14.09
2023-05-09T07:09:35.055Z,13.98
2023-05-09T07:10:35.053Z,13.94
2023-05-09T07:11:35.142Z,14.07
2023-05-09T07:12:35.030Z,14.17
2023-05-09T07:13:35.012Z,14.24
2023-05-09T07:14:35.087Z,14.24
2023-05-09T07:15:41.847Z,14.29
2023-05-09T07:16:37.388Z,14.25
2023-05-09T07:17:34.981Z,14.27
2023-05-09T07:18:34.954Z,14.38
2023-05-09T07:19:34.958Z,14.52
2023-05-09T07:20:34.970Z,14.52
2023-05-09T07:21:34.918Z,14.68
2023-05-09T07:22:37.194Z,14.75
2023-05-09T07:23:34.885Z,14.95
2023-05-09T07:24:34.879Z,14.83
2023-05-09T07:25:34.877Z,14.46
2023-05-09T07:26:34.858Z,13.99
2023-05-09T07:27:34.851Z,13.83
2023-05-09T07:28:34.830Z,13.83
2023-05-09T07:29:34.821Z,14.06
2023-05-09T07:30:34.847Z,14.42
2023-05-09T07:31:37.215Z,14.83
2023-05-09T07:32:34.816Z,14.65
2023-05-09T07:33:34.800Z,14.43
2023-05-09T07:34:34.763Z,14.74
2023-05-09T07:35:34.783Z,15.08
2023-05-09T07:36:35.486Z,15.17
2023-05-09T07:37:34.747Z,14.75
2023-05-09T07:38:34.727Z,14.75
2023-05-09T07:39:34.726Z,15.09
2023-05-09T07:40:34.704Z,15.41
2023-05-09T07:41:34.703Z,15.64
2023-05-09T07:42:34.723Z,15.72
2023-05-09T07:43:34.671Z,15.68
2023-05-09T07:44:34.649Z,15.48
2023-05-09T07:45:34.770Z,15.39
2023-05-09T07:46:34.631Z,15.41
2023-05-09T07:47:34.672Z,15.72
2023-05-09T07:48:34.613Z,16.00
2023-05-09T07:49:34.605Z,16.12
2023-05-09T07:50:34.615Z,16.23
2023-05-09T07:51:34.600Z,16.31
2023-05-09T07:52:34.575Z,16.26
2023-05-09T07:53:34.581Z,16.12
2023-05-09T07:54:34.545Z,15.93
2023-05-09T07:55:34.542Z,15.89
2023-05-09T07:56:34.530Z,15.92
2023-05-09T07:57:34.523Z,15.93
2023-05-09T07:58:34.508Z,15.99
2023-05-09T07:59:34.516Z,15.96
2023-05-09T08:00:34.495Z,15.68
2023-05-09T08:01:34.477Z,15.75
2023-05-09T08:02:34.624Z,15.74
2023-05-09T08:03:34.527Z,15.17
2023-05-09T08:04:34.564Z,15.19
2023-05-09T08:05:34.433Z,15.26
2023-05-09T08:06:34.405Z,15.46
2023-05-09T08:07:34.424Z,15.66
2023-05-09T08:08:34.417Z,15.74
2023-05-09T08:09:34.380Z,15.06
2023-05-09T08:10:34.392Z,14.64
2023-05-09T08:11:34.374Z,14.62
2023-05-09T08:12:34.337Z,14.61
2023-05-09T08:13:34.350Z,14.60
2023-05-09T08:14:34.328Z,14.47
2023-05-09T08:15:34.339Z,14.62
2023-05-09T08:16:34.367Z,14.88
2023-05-09T08:17:34.317Z,15.08
2023-05-09T08:18:34.268Z,15.11
2023-05-09T08:19:34.283Z,15.21
2023-05-09T08:20:34.251Z,15.20
2023-05-09T08:21:34.284Z,15.21
2023-05-09T08:22:34.224Z,15.12
2023-05-09T08:23:34.250Z,15.08
2023-05-09T08:24:34.225Z,15.36
2023-05-09T08:25:34.215Z,15.27
2023-05-09T08:26:34.199Z,14.98
2023-05-09T08:27:34.190Z,14.75
2023-05-09T08:28:34.186Z,14.72
2023-05-09T08:29:34.171Z,14.88
2023-05-09T08:30:34.155Z,15.01
2023-05-09T08:31:34.210Z,15.19
2023-05-09T08:32:34.172Z,15.26
2023-05-09T08:33:34.114Z,15.30
2023-05-09T08:34:34.123Z,15.41
2023-05-09T08:35:34.101Z,15.38
2023-05-09T08:36:34.104Z,15.42
2023-05-09T08:37:34.097Z,15.49
2023-05-09T08:38:34.069Z,15.63
2023-05-09T08:39:34.054Z,15.68
2023-05-09T08:40:34.080Z,15.66
2023-05-09T08:41:34.080Z,15.67
2023-05-09T08:42:34.023Z,15.60
2023-05-09T08:43:34.048Z,15.57
2023-05-09T08:44:34.001Z,15.60
2023-05-09T08:45:33.975Z,15.61
2023-05-09T08:46:34.042Z,15.72
2023-05-09T08:47:33.998Z,15.79
2023-05-09T08:48:35.923Z,15.79
2023-05-09T08:49:33.944Z,15.89
2023-05-09T08:50:33.921Z,15.78
2023-05-09T08:51:33.916Z,15.86
2023-05-09T08:52:33.903Z,15.84
2023-05-09T08:53:33.898Z,15.64
2023-05-09T08:54:33.888Z,15.49
2023-05-09T08:55:33.874Z,15.43
2023-05-09T08:56:33.873Z,15.56
2023-05-09T08:57:33.845Z,15.68
2023-05-09T08:58:33.837Z,15.74
2023-05-09T08:59:33.824Z,15.75
2023-05-09T09:00:33.821Z,15.75
2023-05-09T09:01:33.884Z,15.67
2023-05-09T09:02:33.846Z,15.76
2023-05-09T09:03:33.785Z,15.85
2023-05-09T09:04:33.791Z,15.85
2023-05-09T09:05:41.205Z,15.99
2023-05-09T09:06:33.753Z,16.03
2023-05-09T09:07:33.739Z,15.94
2023-05-09T09:08:33.733Z,15.93
2023-05-09T09:09:33.743Z,15.79
2023-05-09T09:10:33.719Z,16.03
2023-05-09T09:11:33.743Z,16.07
2023-05-09T09:12:33.689Z,16.26
2023-05-09T09:13:33.750Z,16.23
2023-05-09T09:14:33.655Z,16.31
2023-05-09T09:15:33.652Z,16.30
2023-05-09T09:16:33.664Z,15.89
2023-05-09T09:17:33.656Z,16.15
2023-05-09T09:18:33.608Z,16.38
2023-05-09T09:19:33.628Z,16.52
2023-05-09T09:20:33.585Z,16.59
2023-05-09T09:21:33.607Z,16.68
2023-05-09T09:22:33.573Z,16.68
2023-05-09T09:23:33.554Z,16.85
2023-05-09T09:24:33.587Z,17.10
2023-05-09T09:25:33.539Z,16.93
2023-05-09T09:26:33.567Z,16.73
2023-05-09T09:27:33.515Z,16.65
2023-05-09T09:28:33.504Z,16.30
2023-05-09T09:29:33.496Z,16.33
2023-05-09T09:30:33.473Z,16.52
2023-05-09T09:31:33.566Z,16.41
2023-05-09T09:32:33.508Z,16.62
2023-05-09T09:33:33.444Z,16.77
2023-05-09T09:34:33.506Z,16.90
2023-05-09T09:35:33.430Z,17.03
2023-05-09T09:36:33.473Z,17.15
2023-05-09T09:37:33.414Z,17.20
2023-05-09T09:38:33.398Z,16.88
2023-05-09T09:39:34.143Z,16.83
2023-05-09T09:40:33.379Z,17.06
2023-05-09T09:41:33.480Z,17.17
2023-05-09T09:42:33.367Z,16.75
2023-05-09T09:43:33.339Z,16.86
2023-05-09T09:44:33.325Z,16.93
2023-05-09T09:45:33.336Z,17.15
2023-05-09T09:46:33.411Z,17.20
2023-05-09T09:47:33.371Z,17.13
2023-05-09T09:48:33.470Z,17.00
2023-05-09T09:49:33.272Z,16.93
2023-05-09T09:50:33.254Z,17.00
2023-05-09T09:51:33.263Z,17.00
2023-05-09T09:52:33.243Z,17.03
2023-05-09T09:53:33.238Z,16.89
2023-05-09T09:54:33.210Z,16.92
2023-05-09T09:55:33.207Z,17.00
2023-05-09T09:56:33.208Z,16.98
2023-05-09T09:57:33.195Z,17.04
2023-05-09T09:58:33.174Z,17.13
2023-05-09T09:59:33.161Z,17.32
2023-05-09T10:00:33.144Z,17.30
2023-05-09T10:01:33.169Z,17.54
2023-05-09T10:02:33.165Z,17.67
2023-05-09T10:03:33.214Z,17.64
2023-05-09T10:04:33.100Z,17.51
2023-05-09T10:05:33.126Z,17.41
2023-05-09T10:06:33.082Z,17.48
2023-05-09T10:07:33.094Z,17.64
2023-05-09T10:08:33.062Z,17.70
2023-05-09T10:09:33.053Z,17.70
2023-05-09T10:10:33.059Z,17.71
2023-05-09T10:11:33.030Z,17.48
2023-05-09T10:12:33.043Z,17.36
2023-05-09T10:13:33.026Z,17.30
2023-05-09T10:14:35.165Z,17.48
2023-05-09T10:15:41.313Z,17.53
2023-05-09T10:16:43.039Z,17.69
2023-05-09T10:17:33.073Z,17.73
2023-05-09T10:18:33.116Z,17.67
2023-05-09T10:19:32.983Z,17.70
2023-05-09T10:20:32.930Z,17.63
2023-05-09T10:21:32.912Z,17.48
2023-05-09T10:22:33.018Z,17.51
2023-05-09T10:23:32.978Z,17.64
2023-05-09T10:24:32.877Z,17.87
2023-05-09T10:25:32.884Z,18.04
2023-05-09T10:26:32.924Z,18.12
2023-05-09T10:27:32.891Z,18.02
2023-05-09T10:28:32.847Z,17.99
2023-05-09T10:29:32.848Z,18.09
2023-05-09T10:30:34.093Z,18.17
2023-05-09T10:31:32.833Z,18.37
2023-05-09T10:32:32.817Z,18.39
2023-05-09T10:33:32.777Z,18.34
2023-05-09T10:34:32.770Z,18.25
2023-05-09T10:35:32.765Z,17.62
2023-05-09T10:36:32.741Z,17.79
2023-05-09T10:37:33.547Z,17.99
2023-05-09T10:38:32.714Z,18.09
2023-05-09T10:39:32.717Z,18.13
2023-05-09T10:40:32.699Z,18.09
2023-05-09T10:41:32.691Z,18.03
2023-05-09T10:42:32.695Z,18.25
2023-05-09T10:43:34.200Z,18.39
2023-05-09T10:44:32.652Z,18.37
2023-05-09T10:45:32.650Z,18.46
2023-05-09T10:46:32.735Z,18.68
2023-05-09T10:47:32.656Z,18.72
2023-05-09T10:48:32.613Z,18.50
2023-05-09T10:49:34.311Z,18.37
2023-05-09T10:50:32.590Z,18.22
2023-05-09T10:51:32.595Z,18.18
2023-05-09T10:52:32.557Z,18.29
2023-05-09T10:53:32.555Z,18.40
2023-05-09T10:54:32.545Z,18.29
2023-05-09T10:55:32.524Z,18.27
2023-05-09T10:56:32.538Z,17.97
2023-05-09T10:57:32.550Z,18.03
2023-05-09T10:58:32.507Z,17.95
2023-05-09T10:59:32.494Z,18.06
2023-05-09T11:00:32.548Z,18.31
2023-05-09T11:01:32.467Z,18.46
2023-05-09T11:02:32.620Z,18.82
2023-05-09T11:03:32.559Z,19.17
2023-05-09T11:04:32.448Z,19.57
2023-05-09T11:05:32.417Z,19.48
2023-05-09T11:06:32.399Z,19.57
2023-05-09T11:07:32.395Z,19.38
2023-05-09T11:08:32.395Z,19.36
2023-05-09T11:09:32.384Z,19.46
2023-05-09T11:10:32.404Z,18.86
2023-05-09T11:11:32.367Z,18.86
2023-05-09T11:12:32.347Z,19.08
2023-05-09T11:13:32.422Z,18.98
2023-05-09T11:14:32.401Z,19.01
2023-05-09T11:15:32.314Z,18.87
2023-05-09T11:16:32.307Z,18.46
2023-05-09T11:17:32.419Z,18.47
2023-05-09T11:18:32.293Z,18.67
2023-05-09T11:19:32.272Z,18.67
2023-05-09T11:20:32.280Z,18.76
2023-05-09T11:21:32.245Z,19.01
2023-05-09T11:22:32.303Z,19.29
2023-05-09T11:23:32.237Z,19.50
2023-05-09T11:24:32.256Z,19.68
2023-05-09T11:25:32.199Z,19.54
2023-05-09T11:26:32.187Z,19.60
2023-05-09T11:27:32.176Z,19.80
2023-05-09T11:28:32.195Z,20.13
2023-05-09T11:29:32.151Z,20.06
2023-05-09T11:30:32.145Z,20.03
2023-05-09T11:31:32.187Z,19.79
2023-05-09T11:32:32.186Z,19.53
2023-05-09T11:33:32.128Z,19.25
2023-05-09T11:34:32.103Z,19.38
2023-05-09T11:35:32.109Z,19.53
2023-05-09T11:36:32.093Z,19.40
2023-05-09T11:37:32.073Z,19.39
2023-05-09T11:38:32.066Z,19.46
2023-05-09T11:39:32.053Z,19.46
2023-05-09T11:40:32.041Z,19.36
2023-05-09T11:41:32.027Z,19.42
2023-05-09T11:42:32.010Z,19.69
2023-05-09T11:43:32.001Z,19.87
2023-05-09T11:44:31.993Z,20.08
2023-05-09T11:45:31.971Z,20.13
2023-05-09T11:46:32.048Z,19.54
2023-05-09T11:47:31.969Z,19.55
2023-05-09T11:48:31.944Z,19.75
2023-05-09T11:49:31.959Z,19.31
2023-05-09T11:50:31.984Z,19.51
2023-05-09T11:51:31.911Z,19.69
2023-05-09T11:52:31.904Z,19.65
2023-05-09T11:53:31.886Z,19.72
2023-05-09T11:54:31.904Z,20.13
2023-05-09T11:55:31.876Z,20.54
2023-05-09T11:56:31.856Z,20.83
2023-05-09T11:57:31.855Z,21.04
2023-05-09T11:58:31.869Z,21.32
2023-05-09T11:59:31.817Z,21.51
2023-05-09T12:00:31.832Z,21.54
2023-05-09T12:01:31.791Z,21.56
2023-05-09T12:02:31.836Z,21.66
2023-05-09T12:03:31.895Z,21.63
2023-05-09T12:04:31.858Z,21.53
2023-05-09T12:05:31.760Z,21.61
2023-05-09T12:06:31.740Z,21.61
2023-05-09T12:07:31.727Z,20.90
2023-05-09T12:08:31.740Z,20.69
2023-05-09T12:09:31.711Z,20.56
2023-05-09T12:10:31.745Z,20.79
2023-05-09T12:11:31.680Z,20.98
2023-05-09T12:12:31.679Z,20.80
2023-05-09T12:13:31.768Z,20.99
2023-05-09T12:14:31.680Z,21.26
2023-05-09T12:15:31.653Z,21.56
2023-05-09T12:16:31.662Z,21.72
2023-05-09T12:17:31.656Z,21.91
2023-05-09T12:18:31.673Z,21.99
2023-05-09T12:19:31.601Z,22.01
2023-05-09T12:20:31.603Z,21.75
2023-05-09T12:21:31.589Z,21.83
2023-05-09T12:22:31.564Z,21.71
2023-05-09T12:23:31.570Z,21.59
2023-05-09T12:24:31.565Z,21.48
2023-05-09T12:25:31.556Z,21.56
2023-05-09T12:26:31.553Z,21.88
2023-05-09T12:27:31.526Z,21.81
2023-05-09T12:28:31.511Z,21.63
2023-05-09T12:29:31.495Z,21.71
2023-05-09T12:30:31.507Z,21.98
2023-05-09T12:31:31.490Z,21.90
2023-05-09T12:32:31.547Z,21.90
2023-05-09T12:33:31.440Z,22.41
2023-05-09T12:34:31.438Z,22.69
2023-05-09T12:35:31.483Z,21.76
2023-05-09T12:36:31.418Z,22.10
2023-05-09T12:37:31.410Z,22.27
2023-05-09T12:38:31.455Z,22.02
2023-05-09T12:39:31.384Z,21.34
2023-05-09T12:40:31.397Z,21.48
2023-05-09T12:41:39.291Z,21.82
2023-05-09T12:42:31.364Z,22.06
2023-05-09T12:43:31.338Z,21.76
2023-05-09T12:44:31.322Z,21.38
2023-05-09T12:45:31.343Z,22.04
2023-05-09T12:46:31.325Z,22.49
2023-05-09T12:47:31.395Z,22.67
2023-05-09T12:48:31.282Z,22.80
2023-05-09T12:49:31.316Z,23.12
2023-05-09T12:50:31.288Z,22.96
2023-05-09T12:51:31.256Z,22.72
2023-05-09T12:52:31.251Z,22.87
2023-05-09T12:53:31.231Z,23.17
2023-05-09T12:54:31.898Z,23.64
2023-05-09T12:55:31.216Z,23.77
2023-05-09T12:56:31.200Z,24.00
2023-05-09T12:57:31.760Z,24.37
2023-05-09T12:58:31.209Z,24.02
2023-05-09T12:59:31.167Z,22.89
2023-05-09T13:00:31.245Z,22.78
2023-05-09T13:01:31.178Z,23.27
2023-05-09T13:02:31.194Z,23.61
2023-05-09T13:03:31.291Z,23.02
2023-05-09T13:04:31.119Z,22.80
2023-05-09T13:05:31.121Z,22.54
2023-05-09T13:06:31.087Z,22.68
2023-05-09T13:07:31.099Z,23.04
2023-05-09T13:08:31.082Z,23.57
2023-05-09T13:09:31.048Z,24.01
2023-05-09T13:10:31.092Z,24.00
2023-05-09T13:11:31.041Z,24.08
2023-05-09T13:12:31.020Z,24.26
2023-05-09T13:13:31.008Z,24.00
2023-05-09T13:14:31.055Z,23.92
2023-05-09T13:15:31.001Z,23.80
2023-05-09T13:16:31.101Z,23.86
2023-05-09T13:17:30.993Z,23.76
2023-05-09T13:18:30.960Z,23.49
2023-05-09T13:19:30.943Z,22.07
2023-05-09T13:20:30.941Z,21.61
2023-05-09T13:21:30.933Z,21.74
2023-05-09T13:22:30.934Z,22.09
2023-05-09T13:23:30.911Z,22.44
2023-05-09T13:24:30.918Z,23.04
2023-05-09T13:25:30.891Z,22.47
2023-05-09T13:26:30.944Z,22.87
2023-05-09T13:27:30.883Z,22.12
2023-05-09T13:28:30.850Z,22.25
2023-05-09T13:29:30.848Z,22.44
2023-05-09T13:30:30.866Z,22.59
2023-05-09T13:31:30.846Z,23.29
2023-05-09T13:32:30.829Z,23.23
2023-05-09T13:33:30.858Z,23.07
2023-05-09T13:34:30.798Z,22.90
2023-05-09T13:35:30.786Z,23.14
2023-05-09T13:36:30.766Z,23.26
2023-05-09T13:37:30.758Z,23.22
2023-05-09T13:38:30.793Z,23.22
2023-05-09T13:39:30.740Z,23.27
2023-05-09T13:40:31.201Z,23.77
2023-05-09T13:41:30.722Z,23.97
2023-05-09T13:42:30.722Z,24.00
2023-05-09T13:43:30.689Z,24.27
2023-05-09T13:44:30.720Z,24.45
2023-05-09T13:45:30.672Z,24.56
2023-05-09T13:46:30.723Z,24.05
2023-05-09T13:47:30.691Z,24.07
2023-05-09T13:48:30.652Z,23.83
2023-05-09T13:49:30.616Z,23.92
2023-05-09T13:50:30.627Z,23.75
2023-05-09T13:51:30.641Z,24.26
2023-05-09T13:52:30.613Z,24.12
2023-05-09T13:53:30.596Z,23.77
2023-05-09T13:54:30.582Z,23.79
2023-05-09T13:55:30.586Z,24.24
2023-05-09T13:56:30.568Z,24.71
2023-05-09T13:57:30.554Z,24.95
2023-05-09T13:58:30.562Z,24.73
2023-05-09T13:59:30.531Z,25.09
2023-05-09T14:00:30.571Z,25.01
2023-05-09T14:01:30.565Z,24.61
2023-05-09T14:02:30.544Z,24.16
2023-05-09T14:03:31.416Z,23.76
2023-05-09T14:04:30.481Z,23.64
2023-05-09T14:05:30.480Z,23.89
2023-05-09T14:06:30.481Z,23.92
2023-05-09T14:07:30.438Z,24.42
2023-05-09T14:08:30.449Z,24.69
2023-05-09T14:09:30.437Z,25.00
2023-05-09T14:10:30.428Z,24.68
2023-05-09T14:11:30.426Z,24.26
2023-05-09T14:12:30.417Z,24.07
2023-05-09T14:13:30.471Z,24.24
2023-05-09T14:14:30.518Z,24.47
2023-05-09T14:15:30.381Z,24.67
2023-05-09T14:16:30.449Z,25.02
2023-05-09T14:17:30.403Z,24.76
2023-05-09T14:18:30.340Z,24.61
2023-05-09T14:19:30.335Z,23.65
2023-05-09T14:20:30.319Z,23.64
2023-05-09T14:21:30.336Z,24.26
2023-05-09T14:22:30.352Z,24.80
2023-05-09T14:23:30.302Z,25.07
2023-05-09T14:24:30.283Z,24.80
2023-05-09T14:25:30.254Z,24.39
2023-05-09T14:26:30.286Z,24.29
2023-05-09T14:27:30.241Z,24.24
2023-05-09T14:28:30.229Z,24.73
2023-05-09T14:29:30.370Z,25.00
2023-05-09T14:30:30.210Z,24.73
2023-05-09T14:31:30.224Z,24.59
2023-05-09T14:32:30.196Z,23.87
2023-05-09T14:33:30.187Z,23.62
2023-05-09T14:34:30.178Z,23.60
2023-05-09T14:35:30.214Z,24.12
2023-05-09T14:36:30.184Z,24.69
2023-05-09T14:37:30.128Z,24.73
2023-05-09T14:38:30.131Z,25.00
2023-05-09T14:39:30.114Z,25.38
2023-05-09T14:40:30.139Z,25.39
2023-05-09T14:41:30.112Z,25.00
2023-05-09T14:42:30.106Z,25.07
2023-05-09T14:43:30.071Z,24.69
2023-05-09T14:44:30.067Z,23.14
2023-05-09T14:45:30.054Z,22.87
2023-05-09T14:46:30.091Z,22.99
2023-05-09T14:47:30.071Z,23.53
2023-05-09T14:48:30.029Z,23.85
2023-05-09T14:49:30.014Z,23.94
2023-05-09T14:50:30.009Z,23.92
2023-05-09T14:51:30.006Z,24.20
2023-05-09T14:52:29.982Z,24.26
2023-05-09T14:53:29.966Z,24.22
2023-05-09T14:54:29.967Z,24.07
2023-05-09T14:55:29.967Z,23.87
2023-05-09T14:56:29.956Z,22.89
2023-05-09T14:57:29.932Z,23.24
2023-05-09T14:58:29.922Z,23.64
2023-05-09T14:59:29.912Z,23.90
2023-05-09T15:00:30.106Z,23.79
2023-05-09T15:01:29.936Z,23.95
2023-05-09T15:02:29.956Z,24.23
2023-05-09T15:03:29.888Z,24.73
2023-05-09T15:04:29.926Z,25.02
2023-05-09T15:05:29.857Z,25.05
2023-05-09T15:06:29.848Z,25.01
2023-05-09T15:07:29.826Z,25.00
2023-05-09T15:08:29.844Z,24.04
2023-05-09T15:09:29.829Z,23.67
2023-05-09T15:10:29.816Z,24.02
2023-05-09T15:11:36.441Z,24.39
2023-05-09T15:12:29.852Z,24.77
2023-05-09T15:13:29.914Z,25.07
2023-05-09T15:14:29.799Z,25.32
2023-05-09T15:15:29.743Z,25.52
2023-05-09T15:16:29.788Z,24.59
2023-05-09T15:17:29.759Z,23.07
2023-05-09T15:18:29.730Z,23.80
2023-05-09T15:19:29.696Z,23.79
2023-05-09T15:20:29.695Z,23.67
2023-05-09T15:21:29.704Z,23.68
2023-05-09T15:22:29.671Z,23.50
2023-05-09T15:23:29.732Z,23.42
2023-05-09T15:24:29.712Z,23.43
2023-05-09T15:25:29.640Z,23.79
2023-05-09T15:26:29.678Z,23.87
2023-05-09T15:27:29.640Z,24.17
2023-05-09T15:28:29.688Z,24.04
2023-05-09T15:29:29.607Z,23.22
2023-05-09T15:30:29.623Z,22.77
2023-05-09T15:31:31.103Z,22.14
2023-05-09T15:32:29.610Z,22.20
2023-05-09T15:33:29.580Z,22.99
2023-05-09T15:34:29.553Z,23.40
2023-05-09T15:35:29.567Z,23.85
2023-05-09T15:36:29.607Z,23.95
2023-05-09T15:37:29.544Z,23.95
2023-05-09T15:38:29.531Z,24.07
2023-05-09T15:39:29.514Z,24.16
2023-05-09T15:40:29.547Z,24.20
2023-05-09T15:41:29.512Z,24.29
2023-05-09T15:42:29.479Z,23.47
2023-05-09T15:43:29.455Z,22.94
2023-05-09T15:44:29.656Z,22.82
2023-05-09T15:45:29.469Z,23.11
2023-05-09T15:46:29.543Z,22.93
2023-05-09T15:47:29.512Z,23.47
2023-05-09T15:48:29.411Z,23.92
2023-05-09T15:49:29.439Z,24.49
2023-05-09T15:50:29.383Z,23.89
2023-05-09T15:51:29.372Z,23.67
2023-05-09T15:52:29.493Z,24.10
2023-05-09T15:53:29.387Z,24.56
2023-05-09T15:54:29.391Z,23.87
2023-05-09T15:55:29.360Z,23.04
2023-05-09T15:56:29.320Z,23.38
2023-05-09T15:57:29.351Z,23.71
2023-05-09T15:58:29.306Z,22.86
2023-05-09T15:59:29.304Z,22.28
2023-05-09T16:00:29.298Z,22.25
2023-05-09T16:01:29.286Z,22.77
2023-05-09T16:02:29.349Z,22.56
2023-05-09T16:03:29.287Z,22.31
2023-05-09T16:04:29.235Z,22.06
2023-05-09T16:05:29.229Z,22.31
2023-05-09T16:06:29.242Z,23.11
2023-05-09T16:07:29.235Z,22.96
2023-05-09T16:08:29.205Z,22.60
2023-05-09T16:09:29.316Z,22.20
2023-05-09T16:10:29.189Z,22.47
2023-05-09T16:11:29.184Z,23.02
2023-05-09T16:12:29.150Z,23.45
2023-05-09T16:13:29.231Z,23.86
2023-05-09T16:14:29.169Z,24.37
2023-05-09T16:15:29.128Z,24.75
2023-05-09T16:16:29.148Z,24.79
2023-05-09T16:17:29.112Z,23.46
2023-05-09T16:18:29.097Z,23.45
2023-05-09T16:19:29.077Z,23.47
2023-05-09T16:20:29.081Z,23.52
2023-05-09T16:21:29.198Z,23.46
2023-05-09T16:22:29.060Z,23.24
2023-05-09T16:23:29.043Z,22.92
2023-05-09T16:24:29.041Z,23.24
2023-05-09T16:25:29.029Z,23.52
2023-05-09T16:26:29.014Z,22.37
2023-05-09T16:27:29.017Z,22.06
2023-05-09T16:28:28.999Z,22.46
2023-05-09T16:29:28.987Z,22.14
2023-05-09T16:30:28.954Z,22.82
2023-05-09T16:31:29.011Z,22.72
2023-05-09T16:32:29.025Z,22.54
2023-05-09T16:33:28.945Z,21.90
2023-05-09T16:34:28.964Z,21.45
2023-05-09T16:35:28.928Z,21.36
2023-05-09T16:36:28.923Z,21.17
2023-05-09T16:37:28.900Z,21.35
2023-05-09T16:38:28.885Z,21.41
2023-05-09T16:39:28.887Z,21.19
2023-05-09T16:40:28.922Z,20.79
2023-05-09T16:41:29.526Z,20.56
2023-05-09T16:42:28.881Z,20.35
2023-05-09T16:43:28.829Z,20.23
2023-05-09T16:44:28.822Z,20.05
2023-05-09T16:45:28.881Z,19.98
2023-05-09T16:46:28.808Z,19.88
2023-05-09T16:47:28.843Z,19.83
2023-05-09T16:48:28.772Z,19.72
2023-05-09T16:49:28.770Z,19.57
2023-05-09T16:50:28.767Z,19.43
2023-05-09T16:51:28.776Z,19.32
2023-05-09T16:52:28.748Z,19.42
2023-05-09T16:53:28.734Z,19.46
2023-05-09T16:54:28.712Z,19.36
2023-05-09T16:55:28.739Z,19.18